createdAt,value
2023-03-31T00:01:07.216Z,0.90
2023-03-31T00:03:38.552Z,1.27
2023-03-31T00:06:05.949Z,0.90
2023-03-31T00:08:36.364Z,0.80
2023-03-31T00:11:07.148Z,0.90
2023-03-31T00:13:34.438Z,0.63
2023-03-31T00:16:05.886Z,0.77
2023-03-31T00:18:32.882Z,0.82
2023-03-31T00:21:24.388Z,1.10
2023-03-31T00:23:54.938Z,1.10
2023-03-31T00:26:26.222Z,0.90
2023-03-31T00:28:53.476Z,0.98
2023-03-31T00:31:21.046Z,0.90
2023-03-31T00:33:48.700Z,1.00
2023-03-31T00:36:21.027Z,0.90
2023-03-31T00:38:48.822Z,1.08
2023-03-31T00:41:16.051Z,1.00
2023-03-31T00:44:25.307Z,1.30
2023-03-31T00:47:07.787Z,1.00
2023-03-31T00:49:41.065Z,1.00
2023-03-31T00:52:13.593Z,0.80
2023-03-31T00:54:42.565Z,0.95
2023-03-31T00:57:10.346Z,0.95
2023-03-31T00:59:51.332Z,0.98
2023-03-31T01:02:22.032Z,1.23
2023-03-31T01:04:55.608Z,1.10
2023-03-31T01:07:41.270Z,1.42
2023-03-31T01:10:09.002Z,1.30
2023-03-31T01:12:40.456Z,1.50
2023-03-31T01:15:08.888Z,1.48
2023-03-31T01:17:37.512Z,1.60
2023-03-31T01:20:34.164Z,1.27
2023-03-31T01:23:26.440Z,1.60
2023-03-31T01:26:40.102Z,1.73
2023-03-31T01:29:34.731Z,2.78
2023-03-31T01:32:36.243Z,1.42
2023-03-31T01:35:46.828Z,1.38
2023-03-31T01:38:39.737Z,1.48
2023-03-31T01:41:26.926Z,1.30
2023-03-31T01:44:20.539Z,1.40
2023-03-31T01:47:00.882Z,1.05
2023-03-31T01:49:47.530Z,0.95
2023-03-31T01:52:22.686Z,1.13
2023-03-31T01:54:55.961Z,1.30
2023-03-31T01:57:34.437Z,2.03
2023-03-31T02:00:13.315Z,1.55
2023-03-31T02:03:12.173Z,1.52
2023-03-31T02:05:57.186Z,1.30
2023-03-31T02:08:32.863Z,1.48
2023-03-31T02:11:00.327Z,1.42
2023-03-31T02:13:29.706Z,1.40
2023-03-31T02:16:05.042Z,1.80
2023-03-31T02:18:37.931Z,1.50
2023-03-31T02:21:08.547Z,1.95
2023-03-31T02:23:37.782Z,1.42
2023-03-31T02:26:14.592Z,1.75
2023-03-31T02:28:41.495Z,1.27
2023-03-31T02:31:38.997Z,1.25
2023-03-31T02:34:05.767Z,1.13
2023-03-31T02:36:34.704Z,1.23
2023-03-31T02:39:16.821Z,1.17
2023-03-31T02:41:45.686Z,1.50
2023-03-31T02:44:12.730Z,1.58
2023-03-31T02:46:40.904Z,1.13
2023-03-31T02:49:11.463Z,1.75
2023-03-31T02:51:55.904Z,1.35
2023-03-31T02:54:48.856Z,1.13
2023-03-31T02:57:37.408Z,1.30
2023-03-31T03:00:27.912Z,1.20
2023-03-31T03:03:35.071Z,1.40
2023-03-31T03:07:11.779Z,1.10
2023-03-31T03:10:14.553Z,1.35
2023-03-31T03:13:13.841Z,1.10
2023-03-31T03:15:46.880Z,1.30
2023-03-31T03:18:14.236Z,1.52
2023-03-31T03:20:48.352Z,1.20
2023-03-31T03:23:16.652Z,1.38
2023-03-31T03:25:43.978Z,1.60
2023-03-31T03:28:11.209Z,1.30
2023-03-31T03:30:38.255Z,1.77
2023-03-31T03:33:06.856Z,1.88
2023-03-31T03:35:34.237Z,2.35
2023-03-31T03:38:00.942Z,1.80
2023-03-31T03:40:27.536Z,2.67
2023-03-31T03:42:59.201Z,2.30
2023-03-31T03:45:25.854Z,1.83
2023-03-31T03:47:52.552Z,2.10
2023-03-31T03:50:19.208Z,1.80
2023-03-31T03:52:45.971Z,1.75
2023-03-31T03:55:13.674Z,2.00
2023-03-31T03:57:40.368Z,1.88
2023-03-31T04:00:12.091Z,1.92
2023-03-31T04:02:40.058Z,2.00
2023-03-31T04:05:07.348Z,1.60
2023-03-31T04:07:34.102Z,2.00
2023-03-31T04:10:00.834Z,2.03
2023-03-31T04:12:27.464Z,1.80
2023-03-31T04:14:54.061Z,1.90
2023-03-31T04:17:32.295Z,1.90
2023-03-31T04:20:01.801Z,1.65
2023-03-31T04:22:34.770Z,1.90
2023-03-31T04:25:14.637Z,1.88
2023-03-31T04:27:55.157Z,2.50
2023-03-31T04:30:23.880Z,4.38
2023-03-31T04:33:01.165Z,3.35
2023-03-31T04:35:48.445Z,2.58
2023-03-31T04:38:23.314Z,2.90
2023-03-31T04:40:52.017Z,2.42
2023-03-31T04:43:20.854Z,2.10
2023-03-31T04:45:47.670Z,1.95
2023-03-31T04:48:14.425Z,1.70
2023-03-31T04:50:41.071Z,1.60
2023-03-31T04:53:08.076Z,1.67
2023-03-31T04:55:35.018Z,1.80
2023-03-31T04:58:01.640Z,1.85
2023-03-31T05:00:28.916Z,1.63
2023-03-31T05:02:56.868Z,2.00
2023-03-31T05:05:23.757Z,1.75
2023-03-31T05:07:50.405Z,1.27
2023-03-31T05:10:17.205Z,1.70
2023-03-31T05:12:43.890Z,1.90
2023-03-31T05:15:11.005Z,1.92
2023-03-31T05:17:38.056Z,1.75
2023-03-31T05:20:09.503Z,1.83
2023-03-31T05:22:38.218Z,1.90
2023-03-31T05:25:07.644Z,2.35
2023-03-31T05:27:35.585Z,2.20
2023-03-31T05:30:04.446Z,2.35
2023-03-31T05:32:31.135Z,4.53
2023-03-31T05:34:57.710Z,5.03
2023-03-31T05:37:25.485Z,2.83
2023-03-31T05:39:54.757Z,2.20
2023-03-31T05:42:21.596Z,2.30
2023-03-31T05:44:48.225Z,2.17
2023-03-31T05:47:16.487Z,2.95
2023-03-31T05:49:43.255Z,2.30
2023-03-31T05:52:11.471Z,2.10
2023-03-31T05:54:38.266Z,2.50
2023-03-31T05:57:05.201Z,2.47
2023-03-31T05:59:32.080Z,2.58
2023-03-31T06:02:02.757Z,1.88
2023-03-31T06:04:29.547Z,2.17
2023-03-31T06:06:58.021Z,2.83
2023-03-31T06:09:25.879Z,1.90
2023-03-31T06:11:52.543Z,1.92
2023-03-31T06:14:19.188Z,2.13
2023-03-31T06:16:47.643Z,1.92
2023-03-31T06:19:14.365Z,1.77
2023-03-31T06:21:42.254Z,1.77
2023-03-31T06:24:10.117Z,1.80
2023-03-31T06:26:36.711Z,1.80
2023-03-31T06:29:03.486Z,1.50
2023-03-31T06:31:30.569Z,1.60
2023-03-31T06:33:57.276Z,3.80
2023-03-31T06:36:24.186Z,1.83
2023-03-31T06:38:51.740Z,1.80
2023-03-31T06:41:23.200Z,1.60
2023-03-31T06:43:49.892Z,1.92
2023-03-31T06:46:16.837Z,9.00
2023-03-31T06:48:43.488Z,3.75
2023-03-31T06:51:10.948Z,3.10
2023-03-31T06:53:37.661Z,2.10
2023-03-31T06:56:06.427Z,2.83
2023-03-31T06:58:33.503Z,2.55
2023-03-31T07:01:03.960Z,2.80
2023-03-31T07:03:32.476Z,4.32
2023-03-31T07:05:59.646Z,4.00
2023-03-31T07:08:26.311Z,2.33
2023-03-31T07:10:58.801Z,2.22
2023-03-31T07:13:26.960Z,3.95
2023-03-31T07:15:53.949Z,4.57
2023-03-31T07:18:21.257Z,3.72
2023-03-31T07:20:50.307Z,2.38
2023-03-31T07:23:18.081Z,3.28
2023-03-31T07:25:48.305Z,3.17
2023-03-31T07:28:15.610Z,7.30
2023-03-31T07:30:42.647Z,2.20
2023-03-31T07:33:09.690Z,1.60
2023-03-31T07:35:41.247Z,1.77
2023-03-31T07:38:10.176Z,3.00
2023-03-31T07:40:37.743Z,2.00
2023-03-31T07:43:05.484Z,1.17
2023-03-31T07:45:33.436Z,1.73
2023-03-31T07:48:00.178Z,1.80
2023-03-31T07:50:26.897Z,1.60
2023-03-31T07:52:53.615Z,1.05
2023-03-31T07:55:20.877Z,0.93
2023-03-31T07:57:47.732Z,1.00
2023-03-31T08:00:16.059Z,1.10
2023-03-31T08:02:43.535Z,1.40
2023-03-31T08:05:13.254Z,5.68
2023-03-31T08:07:42.836Z,2.35
2023-03-31T08:10:14.426Z,1.40
2023-03-31T08:12:45.161Z,1.20
2023-03-31T08:15:11.951Z,1.00
2023-03-31T08:17:39.606Z,1.25
2023-03-31T08:20:08.503Z,1.20
2023-03-31T08:22:36.360Z,1.42
2023-03-31T08:25:05.012Z,0.85
2023-03-31T08:27:40.286Z,0.80
2023-03-31T08:30:10.765Z,0.73
2023-03-31T08:32:37.601Z,0.95
2023-03-31T08:35:05.135Z,0.60
2023-03-31T08:37:32.326Z,0.55
2023-03-31T08:40:01.049Z,0.52
2023-03-31T08:42:45.282Z,0.40
2023-03-31T08:45:56.279Z,0.55
2023-03-31T08:48:30.723Z,0.40
2023-03-31T08:51:07.614Z,0.40
2023-03-31T08:53:57.558Z,0.40
2023-03-31T08:56:27.122Z,0.50
2023-03-31T08:58:55.388Z,0.32
2023-03-31T09:01:56.300Z,0.60
2023-03-31T09:05:11.406Z,0.50
2023-03-31T09:08:04.796Z,0.60
2023-03-31T09:10:50.872Z,0.75
2023-03-31T09:13:58.617Z,0.80
2023-03-31T09:16:39.470Z,0.80
2023-03-31T09:19:19.897Z,1.10
2023-03-31T09:21:51.718Z,0.90
2023-03-31T09:24:23.677Z,1.20
2023-03-31T09:27:01.928Z,0.80
2023-03-31T09:29:49.741Z,0.80
2023-03-31T09:32:24.825Z,1.30
2023-03-31T09:34:57.438Z,1.15
2023-03-31T09:37:31.506Z,0.80
2023-03-31T09:40:07.347Z,1.13
2023-03-31T09:42:35.875Z,1.10
2023-03-31T09:45:03.149Z,0.90
2023-03-31T09:47:42.438Z,1.10
2023-03-31T09:50:11.033Z,1.00
2023-03-31T09:52:51.148Z,1.48
2023-03-31T09:55:49.585Z,1.42
2023-03-31T09:58:17.457Z,2.03
2023-03-31T10:01:06.281Z,2.33
2023-03-31T10:03:36.782Z,1.52
2023-03-31T10:06:10.424Z,1.55
2023-03-31T10:08:43.508Z,1.50
2023-03-31T10:11:12.130Z,1.52
2023-03-31T10:14:07.078Z,2.00
2023-03-31T10:16:45.836Z,1.85
2023-03-31T10:19:22.033Z,1.52
2023-03-31T10:22:01.059Z,1.60
2023-03-31T10:24:39.202Z,1.65
2023-03-31T10:27:19.546Z,2.30
2023-03-31T10:29:46.941Z,1.83
2023-03-31T10:32:30.558Z,1.88
2023-03-31T10:35:06.374Z,2.45
2023-03-31T10:37:36.418Z,2.20
2023-03-31T10:40:15.195Z,2.00
2023-03-31T10:42:46.298Z,2.42
2023-03-31T10:45:48.153Z,1.60
2023-03-31T10:48:40.627Z,1.70
2023-03-31T10:51:27.363Z,1.55
2023-03-31T10:53:56.377Z,1.60
2023-03-31T10:56:43.599Z,1.80
2023-03-31T10:59:41.299Z,1.35
2023-03-31T11:03:04.741Z,1.02
2023-03-31T11:05:51.291Z,1.27
2023-03-31T11:09:15.976Z,0.77
2023-03-31T11:12:08.370Z,2.08
2023-03-31T11:15:50.318Z,1.13
2023-03-31T11:18:42.391Z,1.35
2023-03-31T11:21:37.421Z,1.40
2023-03-31T11:24:45.918Z,1.63
2023-03-31T11:27:49.816Z,1.70
2023-03-31T11:30:48.476Z,1.83
2023-03-31T11:34:04.715Z,1.60
2023-03-31T11:37:32.168Z,1.73
2023-03-31T11:40:16.219Z,1.40
2023-03-31T11:42:56.139Z,1.83
2023-03-31T11:45:30.072Z,1.90
2023-03-31T11:48:10.776Z,1.88
2023-03-31T11:50:41.538Z,2.65
2023-03-31T11:53:23.549Z,1.88
2023-03-31T11:55:53.866Z,2.80
2023-03-31T11:58:45.707Z,2.00
2023-03-31T12:01:33.931Z,1.67
2023-03-31T12:04:39.836Z,1.80
2023-03-31T12:07:29.907Z,1.60
2023-03-31T12:10:23.459Z,2.85
2023-03-31T12:13:05.365Z,2.22
2023-03-31T12:15:52.715Z,2.67
2023-03-31T12:18:24.931Z,1.25
2023-03-31T12:21:00.005Z,1.00
2023-03-31T12:23:31.727Z,0.80
2023-03-31T12:26:39.879Z,1.08
2023-03-31T12:29:27.583Z,0.88
2023-03-31T12:31:57.641Z,0.82
2023-03-31T12:34:26.768Z,0.95
2023-03-31T12:37:38.292Z,0.70
2023-03-31T12:40:31.272Z,0.70
2023-03-31T12:43:18.695Z,0.47
2023-03-31T12:46:11.229Z,0.65
2023-03-31T12:48:53.392Z,0.73
2023-03-31T12:51:51.075Z,0.60
2023-03-31T12:54:40.885Z,1.10
2023-03-31T12:57:08.935Z,1.00
2023-03-31T12:59:41.331Z,1.10
2023-03-31T13:02:14.966Z,1.17
2023-03-31T13:04:42.762Z,0.90
2023-03-31T13:07:29.247Z,0.90
2023-03-31T13:09:59.295Z,0.88
2023-03-31T13:12:30.820Z,1.00
2023-03-31T13:15:00.888Z,1.20
2023-03-31T13:17:33.168Z,1.40
2023-03-31T13:20:35.985Z,1.70
2023-03-31T13:23:25.273Z,1.30
2023-03-31T13:25:53.816Z,1.15
2023-03-31T13:28:23.170Z,1.25
2023-03-31T13:31:03.630Z,1.33
2023-03-31T13:34:00.009Z,1.42
2023-03-31T13:36:32.374Z,1.25
2023-03-31T13:39:36.104Z,1.38
2023-03-31T13:42:50.074Z,1.50
2023-03-31T13:45:32.139Z,2.45
2023-03-31T13:48:41.025Z,1.70
2023-03-31T13:51:47.123Z,1.27
2023-03-31T13:55:02.090Z,1.92
2023-03-31T13:58:46.312Z,1.98
2023-03-31T14:01:35.080Z,1.92
2023-03-31T14:04:42.514Z,1.65
2023-03-31T14:07:23.131Z,2.05
2023-03-31T14:09:52.701Z,1.83
2023-03-31T14:12:29.207Z,1.30
2023-03-31T14:14:55.917Z,1.08
2023-03-31T14:17:33.741Z,0.90
2023-03-31T14:20:27.631Z,0.75
2023-03-31T14:23:18.871Z,1.35
2023-03-31T14:26:06.708Z,0.75
2023-03-31T14:28:58.137Z,1.02
2023-03-31T14:31:37.279Z,0.88
2023-03-31T14:34:36.603Z,0.90
2023-03-31T14:37:08.339Z,1.38
2023-03-31T14:39:41.236Z,1.90
2023-03-31T14:42:21.550Z,1.20
2023-03-31T14:44:48.824Z,1.00
2023-03-31T14:47:29.003Z,1.05
2023-03-31T14:50:15.734Z,1.10
2023-03-31T14:52:48.871Z,1.20
2023-03-31T14:55:17.488Z,1.17
2023-03-31T14:57:46.897Z,1.45
2023-03-31T15:00:20.622Z,1.65
2023-03-31T15:02:47.983Z,1.00
2023-03-31T15:05:37.990Z,1.38
2023-03-31T15:08:20.658Z,1.10
2023-03-31T15:10:58.969Z,1.45
2023-03-31T15:14:04.365Z,1.50
2023-03-31T15:16:43.253Z,1.30
2023-03-31T15:19:25.825Z,1.30
2023-03-31T15:22:19.264Z,1.52
2023-03-31T15:24:46.541Z,1.10
2023-03-31T15:27:38.224Z,1.67
2023-03-31T15:30:15.293Z,2.00
2023-03-31T15:32:42.271Z,2.55
2023-03-31T15:35:23.389Z,1.42
2023-03-31T15:37:52.723Z,1.85
2023-03-31T15:40:27.124Z,1.05
2023-03-31T15:43:13.488Z,1.00
2023-03-31T15:45:50.033Z,0.80
2023-03-31T15:48:23.307Z,1.10
2023-03-31T15:50:51.730Z,0.70
2023-03-31T15:53:35.596Z,1.10
2023-03-31T15:56:02.573Z,0.85
2023-03-31T15:59:01.399Z,1.00
2023-03-31T16:01:43.635Z,1.35
2023-03-31T16:04:15.296Z,1.20
2023-03-31T16:06:52.523Z,0.95
2023-03-31T16:09:47.077Z,1.25
2023-03-31T16:12:43.450Z,0.90
2023-03-31T16:15:19.716Z,1.42
2023-03-31T16:17:53.789Z,0.90
2023-03-31T16:20:31.703Z,1.20
2023-03-31T16:22:59.699Z,0.90
2023-03-31T16:25:29.978Z,0.93
2023-03-31T16:28:00.847Z,1.15
2023-03-31T16:30:43.061Z,0.90
2023-03-31T16:33:19.727Z,1.08
2023-03-31T16:35:53.536Z,1.00
2023-03-31T16:38:22.951Z,0.98
2023-03-31T16:40:53.120Z,1.30
2023-03-31T16:43:22.895Z,0.90
2023-03-31T16:45:52.081Z,1.35
2023-03-31T16:48:21.653Z,1.10
2023-03-31T16:50:52.915Z,1.25
2023-03-31T16:53:26.435Z,1.33
2023-03-31T16:55:53.527Z,1.25
2023-03-31T16:58:20.999Z,1.00
2023-03-31T17:00:48.021Z,0.98
2023-03-31T17:03:16.410Z,1.13
2023-03-31T17:05:56.295Z,1.10
2023-03-31T17:08:27.495Z,1.40
2023-03-31T17:11:04.490Z,1.30
2023-03-31T17:13:33.623Z,1.38
2023-03-31T17:16:08.773Z,1.75
2023-03-31T17:18:44.571Z,1.83
2023-03-31T17:21:13.905Z,2.10
2023-03-31T17:23:41.579Z,1.83
2023-03-31T17:26:09.610Z,1.17
2023-03-31T17:28:37.564Z,5.88
2023-03-31T17:31:16.662Z,4.25
2023-03-31T17:33:44.019Z,2.42
2023-03-31T17:36:11.595Z,1.65
2023-03-31T17:38:41.934Z,1.70
2023-03-31T17:41:12.775Z,2.22
2023-03-31T17:43:46.736Z,1.30
2023-03-31T17:46:13.954Z,2.00
2023-03-31T17:48:41.733Z,1.50
2023-03-31T17:51:15.112Z,2.00
2023-03-31T17:53:44.866Z,1.50
2023-03-31T17:56:12.577Z,1.58
2023-03-31T17:58:39.585Z,1.40
2023-03-31T18:01:08.657Z,1.48
2023-03-31T18:03:36.513Z,1.60
2023-03-31T18:06:11.218Z,1.23
2023-03-31T18:08:38.679Z,1.52
2023-03-31T18:11:08.278Z,1.33
2023-03-31T18:13:37.003Z,1.30
2023-03-31T18:16:05.823Z,1.63
2023-03-31T18:18:32.562Z,1.20
2023-03-31T18:21:04.452Z,2.33
2023-03-31T18:23:31.917Z,1.40
2023-03-31T18:25:58.611Z,1.83
2023-03-31T18:28:25.323Z,1.50
2023-03-31T18:30:53.156Z,1.20
2023-03-31T18:33:20.108Z,1.45
2023-03-31T18:35:50.152Z,1.30
2023-03-31T18:38:18.243Z,1.35
2023-03-31T18:40:52.457Z,2.30
2023-03-31T18:43:24.347Z,1.63
2023-03-31T18:45:53.676Z,1.45
2023-03-31T18:48:23.068Z,2.00
2023-03-31T18:50:54.030Z,1.45
2023-03-31T18:53:22.132Z,1.40
2023-03-31T18:55:55.570Z,1.90
2023-03-31T18:58:22.644Z,2.45
2023-03-31T19:00:49.401Z,1.67
2023-03-31T19:03:19.075Z,2.10
2023-03-31T19:05:45.998Z,1.80
2023-03-31T19:08:12.587Z,1.35
2023-03-31T19:10:39.218Z,1.38
2023-03-31T19:13:07.565Z,1.70
2023-03-31T19:15:36.949Z,1.20
2023-03-31T19:18:04.195Z,1.65
2023-03-31T19:20:31.498Z,2.45
2023-03-31T19:23:00.334Z,2.92
2023-03-31T19:25:27.098Z,4.82
2023-03-31T19:27:54.457Z,4.60
2023-03-31T19:30:24.008Z,2.90
2023-03-31T19:32:51.046Z,2.67
2023-03-31T19:35:19.800Z,2.03
2023-03-31T19:37:47.371Z,2.22
2023-03-31T19:40:14.605Z,1.88
2023-03-31T19:42:42.018Z,1.77
2023-03-31T19:45:09.330Z,1.70
2023-03-31T19:47:36.442Z,1.77
2023-03-31T19:50:03.812Z,1.80
2023-03-31T19:52:30.582Z,1.80
2023-03-31T19:54:57.228Z,1.67
2023-03-31T19:57:23.876Z,1.20
2023-03-31T19:59:50.517Z,1.40
2023-03-31T20:02:17.702Z,1.90
2023-03-31T20:04:46.078Z,1.40
2023-03-31T20:07:13.537Z,1.40
2023-03-31T20:09:40.303Z,1.20
2023-03-31T20:12:08.828Z,1.15
2023-03-31T20:14:35.431Z,1.40
2023-03-31T20:17:03.147Z,1.38
2023-03-31T20:19:29.847Z,1.27
2023-03-31T20:21:57.850Z,1.42
2023-03-31T20:24:24.857Z,1.15
2023-03-31T20:26:51.884Z,1.05
2023-03-31T20:29:18.795Z,1.65
2023-03-31T20:31:46.583Z,1.33
2023-03-31T20:34:16.644Z,1.25
2023-03-31T20:36:45.860Z,2.05
2023-03-31T20:39:14.914Z,1.40
2023-03-31T20:41:42.149Z,1.55
2023-03-31T20:44:12.752Z,1.10
2023-03-31T20:46:43.155Z,1.00
2023-03-31T20:49:09.889Z,1.10
2023-03-31T20:51:38.471Z,1.73
2023-03-31T20:54:07.053Z,1.30
2023-03-31T20:56:44.447Z,1.70
2023-03-31T20:59:14.968Z,2.00
2023-03-31T21:01:42.876Z,1.27
2023-03-31T21:04:11.139Z,1.20
2023-03-31T21:06:41.722Z,1.20
2023-03-31T21:09:11.418Z,1.40
2023-03-31T21:11:41.622Z,1.20
2023-03-31T21:14:13.177Z,0.98
2023-03-31T21:16:40.220Z,1.30
2023-03-31T21:19:07.077Z,1.50
2023-03-31T21:21:35.660Z,1.20
2023-03-31T21:24:02.606Z,1.25
2023-03-31T21:26:29.333Z,1.20
2023-03-31T21:28:55.990Z,0.90
2023-03-31T21:31:25.161Z,1.33
2023-03-31T21:33:53.688Z,1.35
2023-03-31T21:36:22.664Z,1.42
2023-03-31T21:38:53.823Z,1.38
2023-03-31T21:41:25.430Z,1.23
2023-03-31T21:43:52.212Z,1.08
2023-03-31T21:46:22.576Z,1.13
2023-03-31T21:48:49.954Z,1.05
2023-03-31T21:51:18.694Z,1.27
2023-03-31T21:53:45.678Z,1.17
2023-03-31T21:56:12.302Z,1.20
2023-03-31T21:58:38.869Z,1.50
2023-03-31T22:01:06.147Z,1.40
2023-03-31T22:03:34.779Z,1.20
2023-03-31T22:06:04.229Z,1.40
2023-03-31T22:08:31.466Z,1.80
2023-03-31T22:11:00.116Z,1.50
2023-03-31T22:13:28.440Z,1.70
2023-03-31T22:15:56.006Z,1.27
2023-03-31T22:18:23.095Z,1.30
2023-03-31T22:20:50.696Z,1.30
2023-03-31T22:23:17.718Z,1.40
2023-03-31T22:25:44.340Z,1.30
2023-03-31T22:28:11.011Z,1.40
2023-03-31T22:30:37.805Z,1.20
2023-03-31T22:33:04.768Z,1.50
2023-03-31T22:35:31.734Z,1.10
2023-03-31T22:37:58.676Z,1.50
2023-03-31T22:40:25.417Z,1.02
2023-03-31T22:42:54.568Z,1.00
2023-03-31T22:45:21.272Z,1.08
2023-03-31T22:47:48.931Z,1.30
2023-03-31T22:50:15.945Z,1.33
2023-03-31T22:52:42.588Z,1.33
2023-03-31T22:55:09.316Z,1.38
2023-03-31T22:57:36.024Z,1.10
2023-03-31T23:00:06.921Z,1.23
2023-03-31T23:02:33.598Z,1.50
2023-03-31T23:05:00.261Z,1.23
2023-03-31T23:07:27.913Z,1.40
2023-03-31T23:09:54.472Z,1.33
2023-03-31T23:12:21.113Z,1.20
2023-03-31T23:14:47.692Z,1.58
2023-03-31T23:17:14.272Z,1.20
2023-03-31T23:19:41.636Z,1.30
2023-03-31T23:22:08.391Z,1.55
2023-03-31T23:24:36.060Z,1.25
2023-03-31T23:27:02.653Z,1.27
2023-03-31T23:29:30.583Z,1.05
2023-03-31T23:31:57.589Z,1.67
2023-03-31T23:34:24.316Z,1.15
2023-03-31T23:36:52.661Z,1.63
2023-03-31T23:39:19.249Z,1.20
2023-03-31T23:41:46.357Z,1.75
2023-03-31T23:44:12.996Z,1.17
2023-03-31T23:46:41.870Z,1.52
2023-03-31T23:49:09.154Z,1.52
2023-03-31T23:51:35.793Z,1.25
2023-03-31T23:54:02.389Z,1.10
2023-03-31T23:56:29.330Z,1.27
2023-03-31T23:58:56.021Z,1.63
